Time;durP1;ratioP1;P1;durP2;ratioP2;P2;SDS_P1;SDS_P2;PMS_P1;PMS_P2;Temp;Humidity;BMP_temperature;BMP_pressure;BME280_temperature;BME280_humidity;BME280_pressure;Samples;Min_cycle;Max_cycle;Signal;HPM_P1;HPM_P2
2023/10/26 00:00:57;;;;;;;87.13;12.23;;;15.30;99.90;;;;;;5000040;28;20200;-80
2023/10/26 00:03:38;;;;;;;24.33;12.10;;;15.30;99.90;;;;;;5002369;28;20619;-80
2023/10/26 00:06:15;;;;;;;23.40;12.67;;;15.30;99.90;;;;;;5014637;28;20231;-80
2023/10/26 00:08:45;;;;;;;20.93;12.87;;;15.30;99.90;;;;;;5017868;28;20299;-80
2023/10/26 00:11:13;;;;;;;24.27;15.47;;;15.30;99.90;;;;;;5021586;28;20698;-80
2023/10/26 00:13:41;;;;;;;31.13;13.40;;;15.40;99.90;;;;;;5019155;28;20196;-80
2023/10/26 00:16:11;;;;;;;51.13;13.47;;;15.40;99.90;;;;;;5012279;28;20238;-80
2023/10/26 00:18:42;;;;;;;51.73;11.90;;;15.40;99.90;;;;;;4995768;28;20206;-79
2023/10/26 00:21:16;;;;;;;59.43;12.67;;;15.40;99.90;;;;;;5000061;28;20215;-80
2023/10/26 00:23:46;;;;;;;31.00;11.10;;;15.40;99.90;;;;;;4998481;28;20647;-80
2023/10/26 00:26:14;;;;;;;58.30;13.97;;;15.40;99.90;;;;;;5010969;28;20216;-80
2023/10/26 00:28:46;;;;;;;49.73;12.83;;;15.40;99.90;;;;;;5019229;28;21181;-80
2023/10/26 00:31:14;;;;;;;51.83;12.80;;;15.50;99.90;;;;;;5031987;28;20243;-80
2023/10/26 00:33:42;;;;;;;49.23;13.90;;;15.50;99.90;;;;;;5009000;28;20248;-81
2023/10/26 00:36:10;;;;;;;45.47;13.00;;;15.50;99.90;;;;;;5016517;28;20206;-80
2023/10/26 00:38:38;;;;;;;43.17;13.40;;;15.50;99.90;;;;;;5021079;28;20245;-80
2023/10/26 00:41:06;;;;;;;39.00;12.40;;;15.50;99.90;;;;;;5014148;28;20218;-79
2023/10/26 00:43:33;;;;;;;35.83;13.00;;;15.50;99.90;;;;;;5010857;28;20204;-79
2023/10/26 00:46:10;;;;;;;29.60;12.30;;;15.50;99.90;;;;;;5010515;28;20188;-79
2023/10/26 00:48:41;;;;;;;42.10;14.20;;;15.50;99.90;;;;;;5003269;28;20301;-82
2023/10/26 00:51:15;;;;;;;49.03;13.47;;;15.50;99.90;;;;;;5019825;28;20204;-80
2023/10/26 00:53:50;;;;;;;35.17;13.30;;;15.50;99.90;;;;;;5024895;28;20262;-80
2023/10/26 00:56:22;;;;;;;36.37;13.73;;;15.50;99.90;;;;;;5019149;28;20210;-80
2023/10/26 00:58:49;;;;;;;46.87;12.33;;;15.50;99.90;;;;;;5034368;28;20220;-80
2023/10/26 01:01:20;;;;;;;47.97;14.23;;;15.50;99.90;;;;;;5032738;28;20848;-80
2023/10/26 01:03:57;;;;;;;41.40;14.90;;;15.50;99.90;;;;;;5006278;28;20216;-80
2023/10/26 01:06:27;;;;;;;29.30;14.47;;;15.50;99.90;;;;;;5000382;28;20224;-80
2023/10/26 01:08:55;;;;;;;31.23;14.33;;;15.50;99.90;;;;;;5029613;28;20544;-80
2023/10/26 01:11:26;;;;;;;46.00;14.23;;;15.50;99.90;;;;;;4999894;28;20295;-79
2023/10/26 01:14:15;;;;;;;32.10;14.43;;;15.40;99.90;;;;;;5011719;28;20214;-80
2023/10/26 01:16:50;;;;;;;33.73;15.53;;;15.40;99.90;;;;;;4996225;28;20200;-80
2023/10/26 01:19:51;;;;;;;46.57;14.87;;;15.30;99.90;;;;;;5016499;28;20210;-80
2023/10/26 01:22:29;;;;;;;63.77;15.20;;;15.30;99.90;;;;;;5034293;28;20212;-80
2023/10/26 01:25:13;;;;;;;32.00;15.40;;;15.20;99.90;;;;;;5031910;28;20263;-80
2023/10/26 01:27:56;;;;;;;32.23;14.67;;;15.20;99.90;;;;;;5016122;28;20485;-80
2023/10/26 01:30:26;;;;;;;37.77;14.43;;;15.20;99.90;;;;;;4994827;28;20203;-80
2023/10/26 01:32:54;;;;;;;24.93;14.97;;;15.20;99.90;;;;;;5011716;28;20211;-80
2023/10/26 01:35:50;;;;;;;66.67;15.90;;;15.20;99.90;;;;;;4997318;28;20695;-80
2023/10/26 01:38:22;;;;;;;28.23;14.47;;;15.10;99.90;;;;;;4979922;28;20228;-80
2023/10/26 01:40:52;;;;;;;30.27;14.27;;;15.20;99.90;;;;;;5000112;28;20215;-78
2023/10/26 01:43:25;;;;;;;51.13;16.97;;;15.10;99.90;;;;;;4997922;28;20211;-80
2023/10/26 01:46:33;;;;;;;46.90;15.20;;;15.10;99.90;;;;;;5003154;28;20207;-80
2023/10/26 01:49:23;;;;;;;61.10;16.33;;;15.10;99.90;;;;;;4995415;28;20242;-80
2023/10/26 01:51:57;;;;;;;40.03;16.83;;;15.10;99.90;;;;;;5017595;28;20258;-80
2023/10/26 01:54:27;;;;;;;29.97;16.63;;;15.10;99.90;;;;;;5008515;28;20196;-80
2023/10/26 01:57:08;;;;;;;51.43;15.50;;;15.10;99.90;;;;;;5000240;28;20220;-80
2023/10/26 01:59:40;;;;;;;31.10;15.90;;;15.10;99.90;;;;;;5020064;28;20199;-80
2023/10/26 02:02:08;;;;;;;38.57;15.33;;;15.10;99.90;;;;;;5017950;28;20228;-80
2023/10/26 02:05:16;;;;;;;;;;;;;;;;;;;;;
2023/10/26 02:08:01;;;;;;;32.23;15.60;;;15.20;99.90;;;;;;5011952;28;20236;-80
2023/10/26 02:10:36;;;;;;;36.73;16.23;;;15.20;99.90;;;;;;5017333;28;20204;-80
2023/10/26 02:13:03;;;;;;;42.30;15.73;;;15.20;99.90;;;;;;4999264;28;20245;-80
2023/10/26 02:15:34;;;;;;;65.93;16.20;;;15.10;99.90;;;;;;5011874;28;20807;-81
2023/10/26 02:21:15;;;;;;;63.27;16.13;;;15.10;99.90;;;;;;5012549;28;20210;-80
2023/10/26 02:23:58;;;;;;;58.37;15.63;;;15.10;99.90;;;;;;4997331;28;20730;-80
2023/10/26 02:26:38;;;;;;;106.03;16.90;;;15.00;99.90;;;;;;5006774;28;20212;-80
2023/10/26 02:29:14;;;;;;;64.40;16.37;;;15.00;99.90;;;;;;5034410;28;20231;-80
2023/10/26 02:31:52;;;;;;;66.20;15.50;;;15.00;99.90;;;;;;5008561;28;20218;-80
2023/10/26 02:34:32;;;;;;;59.17;17.07;;;15.00;99.90;;;;;;5010920;28;20200;-80
2023/10/26 02:37:03;;;;;;;61.37;18.13;;;15.00;99.90;;;;;;4995331;28;20200;-80
2023/10/26 02:40:40;;;;;;;;;;;;;;;;;;;;;
2023/10/26 02:43:32;;;;;;;41.53;18.57;;;15.10;99.90;;;;;;5034800;28;20227;-80
2023/10/26 02:46:06;;;;;;;58.33;20.10;;;15.10;99.90;;;;;;5000472;28;20222;-79
2023/10/26 02:48:57;;;;;;;37.40;20.47;;;15.10;99.90;;;;;;5015900;28;20219;-80
2023/10/26 02:51:37;;;;;;;56.00;21.23;;;15.10;99.90;;;;;;5007501;28;20212;-80
2023/10/26 02:54:44;;;;;;;63.03;21.50;;;15.10;99.90;;;;;;5027955;28;20196;-79
2023/10/26 02:57:50;;;;;;;42.03;21.87;;;15.10;99.90;;;;;;5017522;28;20222;-79
2023/10/26 03:00:27;;;;;;;57.67;23.30;;;15.10;99.90;;;;;;5009406;28;20203;-80
2023/10/26 03:02:55;;;;;;;59.83;26.43;;;15.10;99.90;;;;;;5012056;28;20640;-80
2023/10/26 03:05:29;;;;;;;50.03;23.30;;;15.20;99.90;;;;;;4988927;28;20667;-79
2023/10/26 03:08:00;;;;;;;52.63;24.00;;;15.20;99.90;;;;;;4996660;28;20215;-80
2023/10/26 03:10:33;;;;;;;49.30;25.97;;;15.20;99.90;;;;;;5008282;28;20238;-79
2023/10/26 03:13:30;;;;;;;76.60;26.07;;;15.30;99.90;;;;;;4991143;28;20297;-80
2023/10/26 03:16:23;;;;;;;78.07;26.33;;;15.30;99.90;;;;;;5005399;28;20287;-80
2023/10/26 03:19:56;;;;;;;45.60;25.43;;;15.30;99.90;;;;;;5007301;28;20208;-80
2023/10/26 03:22:56;;;;;;;65.03;27.10;;;15.30;99.90;;;;;;5032451;28;20192;-80
2023/10/26 03:25:27;;;;;;;78.13;24.90;;;15.30;99.90;;;;;;5017074;28;20545;-80
2023/10/26 03:28:00;;;;;;;59.63;25.60;;;15.40;99.90;;;;;;4994696;28;20288;-80
2023/10/26 03:30:31;;;;;;;46.20;24.33;;;15.40;99.90;;;;;;5016291;28;20195;-79
2023/10/26 03:32:58;;;;;;;89.07;26.57;;;15.40;99.90;;;;;;5017406;28;20219;-80
2023/10/26 03:35:26;;;;;;;108.97;28.17;;;15.40;99.90;;;;;;5000778;28;20234;-79
2023/10/26 03:38:09;;;;;;;80.53;26.90;;;15.40;99.90;;;;;;4999031;28;20326;-80
2023/10/26 03:40:37;;;;;;;80.90;27.10;;;15.30;99.90;;;;;;4997274;28;20220;-80
2023/10/26 03:43:05;;;;;;;64.30;26.30;;;15.30;99.90;;;;;;4996578;28;20204;-80
2023/10/26 03:45:34;;;;;;;66.77;28.03;;;15.30;99.90;;;;;;5016778;28;20231;-80
2023/10/26 03:48:03;;;;;;;84.33;27.87;;;15.30;99.90;;;;;;5024080;28;20216;-80
2023/10/26 03:50:38;;;;;;;71.80;26.30;;;15.30;99.90;;;;;;5029834;28;20553;-80
2023/10/26 03:53:06;;;;;;;54.90;26.83;;;15.30;99.90;;;;;;4997589;28;20301;-80
2023/10/26 03:56:00;;;;;;;54.30;28.27;;;15.30;99.90;;;;;;5025316;28;20294;-80
2023/10/26 03:58:31;;;;;;;70.17;28.33;;;15.30;99.90;;;;;;5014167;28;20208;-80
2023/10/26 04:01:51;;;;;;;56.87;26.43;;;15.40;99.90;;;;;;5013273;28;20223;-81
2023/10/26 04:05:11;;;;;;;48.27;27.03;;;15.30;99.90;;;;;;4998840;28;20222;-80
2023/10/26 04:08:13;;;;;;;;;;;;;;;;;;;;;
2023/10/26 04:11:26;;;;;;;38.93;27.17;;;15.30;99.90;;;;;;5016028;28;20743;-80
2023/10/26 04:13:57;;;;;;;80.80;28.13;;;15.30;99.90;;;;;;5014970;28;20215;-80
2023/10/26 04:16:51;;;;;;;55.50;30.23;;;15.30;99.90;;;;;;5007724;28;20222;-80
2023/10/26 04:19:28;;;;;;;62.00;28.17;;;15.30;99.90;;;;;;4994612;28;20266;-80
2023/10/26 04:21:56;;;;;;;53.17;29.50;;;15.40;99.90;;;;;;5008085;28;20208;-80
2023/10/26 04:24:26;;;;;;;61.20;29.37;;;15.40;99.90;;;;;;5029171;28;20207;-80
2023/10/26 04:26:53;;;;;;;59.90;30.47;;;15.40;99.90;;;;;;5007591;28;20208;-80
2023/10/26 04:29:21;;;;;;;65.77;31.70;;;15.40;99.90;;;;;;4991313;28;20281;-81
2023/10/26 04:31:49;;;;;;;61.63;31.20;;;15.40;99.90;;;;;;5015349;28;20207;-80
2023/10/26 04:34:17;;;;;;;58.40;31.30;;;15.40;99.90;;;;;;4996263;28;20200;-82
2023/10/26 04:36:49;;;;;;;66.23;32.73;;;15.40;99.90;;;;;;5014035;28;20206;-80
2023/10/26 04:39:48;;;;;;;66.17;32.63;;;15.40;99.90;;;;;;4999879;28;20248;-81
2023/10/26 04:42:19;;;;;;;78.20;31.60;;;15.40;99.90;;;;;;4991264;28;20208;-80
2023/10/26 04:44:49;;;;;;;65.60;31.93;;;15.40;99.90;;;;;;5007251;28;20299;-80
2023/10/26 04:47:24;;;;;;;79.23;32.87;;;15.40;99.90;;;;;;5011943;28;20234;-79
2023/10/26 04:50:12;;;;;;;77.00;33.57;;;15.40;99.90;;;;;;5012862;28;20292;-81
2023/10/26 04:52:43;;;;;;;77.53;33.67;;;15.40;99.90;;;;;;5027699;28;20233;-80
2023/10/26 04:55:11;;;;;;;80.60;33.40;;;15.40;99.90;;;;;;5004525;28;20196;-79
2023/10/26 04:57:56;;;;;;;67.20;33.60;;;15.40;99.90;;;;;;5015791;28;20287;-80
2023/10/26 05:00:32;;;;;;;101.13;36.37;;;15.40;99.90;;;;;;5025602;28;20643;-80
2023/10/26 05:03:08;;;;;;;67.47;34.57;;;15.40;99.90;;;;;;4989929;28;20223;-81
2023/10/26 05:06:06;;;;;;;93.13;36.13;;;15.30;99.90;;;;;;5017085;28;20711;-80
2023/10/26 05:08:36;;;;;;;88.37;37.63;;;15.30;99.90;;;;;;5000064;28;20243;-80
2023/10/26 05:11:07;;;;;;;111.97;39.20;;;15.30;99.90;;;;;;5014652;28;20211;-79
2023/10/26 05:14:08;;;;;;;195.23;39.00;;;15.40;99.90;;;;;;5023990;28;20208;-79
2023/10/26 05:17:40;;;;;;;114.70;37.93;;;15.30;99.90;;;;;;5029940;28;20203;-80
2023/10/26 05:20:32;;;;;;;85.10;37.57;;;15.30;99.90;;;;;;5013826;28;20269;-80
2023/10/26 05:23:20;;;;;;;159.67;38.07;;;15.30;99.90;;;;;;4999229;28;20311;-79
2023/10/26 05:26:19;;;;;;;115.30;40.00;;;15.40;99.90;;;;;;5026928;28;20211;-81
2023/10/26 05:28:59;;;;;;;94.33;38.73;;;15.40;99.90;;;;;;5001421;28;20231;-80
2023/10/26 05:31:32;;;;;;;125.20;40.00;;;15.40;99.90;;;;;;5023646;28;20228;-79
2023/10/26 05:34:03;;;;;;;167.40;41.33;;;15.30;99.90;;;;;;5009468;28;20280;-80
2023/10/26 05:37:11;;;;;;;105.97;41.67;;;15.30;99.90;;;;;;5010990;28;20628;-81
2023/10/26 05:40:08;;;;;;;118.97;41.60;;;15.40;99.90;;;;;;5003678;28;20801;-80
2023/10/26 05:43:05;;;;;;;269.37;45.73;;;15.30;99.90;;;;;;5008228;28;20258;-81
2023/10/26 05:46:18;;;;;;;235.20;45.20;;;15.30;99.90;;;;;;5013688;28;20631;-80
2023/10/26 05:49:22;;;;;;;124.53;42.17;;;15.30;99.90;;;;;;5020276;28;20235;-81
2023/10/26 05:52:39;;;;;;;142.40;42.17;;;15.30;99.90;;;;;;4995716;28;20222;-81
2023/10/26 05:56:30;;;;;;;109.43;41.90;;;15.30;99.90;;;;;;5025953;28;20671;-81
2023/10/26 05:59:27;;;;;;;131.07;42.93;;;15.30;99.90;;;;;;5003514;28;20199;-81
2023/10/26 06:02:02;;;;;;;108.17;44.17;;;15.30;99.90;;;;;;5008780;28;20200;-81
2023/10/26 06:04:34;;;;;;;146.40;42.87;;;15.30;99.90;;;;;;5016430;28;20207;-82
2023/10/26 06:07:14;;;;;;;188.80;42.70;;;15.30;99.90;;;;;;5013135;28;20207;-81
2023/10/26 06:09:56;;;;;;;159.73;38.87;;;15.30;99.90;;;;;;5001400;28;20214;-81
2023/10/26 06:12:28;;;;;;;112.43;38.87;;;15.30;99.90;;;;;;5018382;28;20196;-81
2023/10/26 06:15:06;;;;;;;124.37;39.43;;;15.30;99.90;;;;;;5030008;28;20208;-80
2023/10/26 06:17:40;;;;;;;105.60;38.93;;;15.20;99.90;;;;;;5000758;28;20207;-81
2023/10/26 06:20:28;;;;;;;118.27;39.43;;;15.20;99.90;;;;;;5004615;28;20211;-82
2023/10/26 06:23:13;;;;;;;133.83;38.47;;;15.20;99.90;;;;;;5018841;28;20207;-81
2023/10/26 06:25:46;;;;;;;91.00;39.83;;;15.20;99.90;;;;;;5021601;28;20541;-81
2023/10/26 06:28:19;;;;;;;109.33;40.43;;;15.20;99.90;;;;;;5015437;28;20311;-81
2023/10/26 06:31:19;;;;;;;88.37;37.67;;;15.20;99.90;;;;;;4991943;28;20206;-81
2023/10/26 06:34:17;;;;;;;77.97;38.73;;;15.20;99.90;;;;;;5016963;28;20192;-81
2023/10/26 06:37:12;;;;;;;86.20;37.17;;;15.30;99.90;;;;;;4995689;28;20201;-81
2023/10/26 06:39:55;;;;;;;72.73;36.73;;;15.30;99.90;;;;;;4996712;28;20262;-84
2023/10/26 06:43:15;;;;;;;78.63;36.43;;;15.40;99.90;;;;;;5017843;28;20542;-81
2023/10/26 06:50:03;;;;;;;;;;;;;;;;;;;;;
2023/10/26 06:52:46;;;;;;;73.67;35.13;;;15.30;99.90;;;;;;5010132;28;20215;-82
2023/10/26 06:55:39;;;;;;;72.60;35.30;;;15.40;99.90;;;;;;4997522;28;20211;-81
2023/10/26 06:58:19;;;;;;;80.87;37.07;;;15.40;99.90;;;;;;5013531;28;20204;-81
2023/10/26 07:01:02;;;;;;;72.47;38.27;;;15.50;99.90;;;;;;5014956;28;20688;-81
2023/10/26 07:03:43;;;;;;;81.03;36.80;;;15.50;99.90;;;;;;4998248;28;20625;-81
2023/10/26 07:06:41;;;;;;;;;;;;;;;;;;;;;
2023/10/26 07:09:31;;;;;;;79.93;38.67;;;15.60;99.90;;;;;;5030257;28;20647;-81
2023/10/26 07:12:00;;;;;;;120.00;37.47;;;15.60;99.90;;;;;;5006991;28;20200;-81
2023/10/26 07:14:44;;;;;;;97.30;39.87;;;15.70;99.90;;;;;;5013176;28;20293;-81
2023/10/26 07:17:46;;;;;;;90.10;38.67;;;15.70;99.90;;;;;;5015313;28;20209;-81
2023/10/26 07:23:35;;;;;;;80.70;40.03;;;15.70;99.90;;;;;;5082921;28;20568;-64
2023/10/26 07:26:03;;;;;;;87.33;40.73;;;15.70;99.90;;;;;;5068428;28;20609;-64
2023/10/26 07:28:30;;;;;;;92.80;40.47;;;15.80;99.90;;;;;;5082267;28;20213;-65
2023/10/26 07:30:57;;;;;;;83.83;40.30;;;15.80;99.90;;;;;;5087358;28;20212;-65
2023/10/26 07:33:24;;;;;;;78.27;38.27;;;15.80;99.90;;;;;;5084802;28;20205;-65
2023/10/26 07:35:55;;;;;;;84.83;38.90;;;15.80;99.90;;;;;;5086300;28;20200;-67
2023/10/26 07:38:25;;;;;;;78.07;39.40;;;15.90;99.90;;;;;;5082537;28;20201;-66
2023/10/26 07:41:03;;;;;;;75.33;36.90;;;15.90;99.90;;;;;;5082892;28;20244;-66
2023/10/26 07:43:31;;;;;;;66.93;35.33;;;15.90;99.90;;;;;;5080447;28;20193;-65
2023/10/26 07:45:58;;;;;;;79.00;38.77;;;15.90;99.90;;;;;;5081770;28;20285;-65
2023/10/26 07:48:25;;;;;;;83.03;40.93;;;16.00;99.90;;;;;;5081423;28;20209;-65
2023/10/26 07:50:52;;;;;;;53.97;34.27;;;16.00;99.90;;;;;;5079994;28;20202;-65
2023/10/26 07:53:19;;;;;;;57.63;31.07;;;16.00;99.90;;;;;;5066974;28;20205;-65
2023/10/26 07:55:46;;;;;;;59.20;33.20;;;16.00;99.90;;;;;;5076746;28;20194;-67
2023/10/26 07:58:14;;;;;;;68.10;35.77;;;16.00;99.90;;;;;;5084826;28;20193;-68
2023/10/26 08:00:41;;;;;;;68.40;36.67;;;15.90;99.90;;;;;;5082370;28;20214;-68
2023/10/26 08:03:10;;;;;;;67.03;35.03;;;15.90;99.90;;;;;;5065824;28;20239;-65
2023/10/26 08:05:37;;;;;;;73.33;37.07;;;15.90;99.90;;;;;;5082568;28;20638;-65
2023/10/26 08:08:04;;;;;;;63.23;33.70;;;15.90;99.90;;;;;;5077276;28;20242;-65
2023/10/26 08:10:35;;;;;;;59.83;32.10;;;15.90;99.90;;;;;;5080884;28;20280;-65
2023/10/26 08:13:05;;;;;;;58.40;33.23;;;15.90;99.90;;;;;;5087749;28;20697;-66
2023/10/26 08:15:32;;;;;;;65.83;33.50;;;15.90;99.90;;;;;;5068441;28;20200;-65
2023/10/26 08:18:19;;;;;;;58.57;32.50;;;15.90;99.90;;;;;;5082016;28;20631;-65
2023/10/26 08:20:51;;;;;;;57.47;32.47;;;15.90;99.90;;;;;;5082984;28;20193;-65
2023/10/26 08:23:19;;;;;;;62.13;32.27;;;15.90;99.90;;;;;;5086400;28;20234;-65
2023/10/26 08:25:47;;;;;;;58.80;34.20;;;15.90;99.90;;;;;;5083157;28;20201;-65
2023/10/26 08:28:15;;;;;;;61.63;32.77;;;15.90;99.90;;;;;;5081026;28;20221;-66
2023/10/26 08:30:42;;;;;;;56.87;31.30;;;15.90;99.90;;;;;;5084787;28;20204;-66
2023/10/26 08:33:09;;;;;;;58.10;32.27;;;15.90;99.90;;;;;;5072798;28;20662;-65
2023/10/26 08:35:41;;;;;;;57.60;31.70;;;15.90;99.90;;;;;;5084689;28;20561;-65
2023/10/26 08:38:08;;;;;;;67.17;35.47;;;15.90;99.90;;;;;;5080496;28;20206;-65
2023/10/26 08:40:36;;;;;;;66.63;33.67;;;15.90;99.90;;;;;;5082773;28;20714;-65
2023/10/26 08:43:05;;;;;;;59.17;34.83;;;16.00;99.90;;;;;;5081638;28;20289;-65
2023/10/26 08:45:35;;;;;;;59.73;33.50;;;16.00;99.90;;;;;;5080525;28;20257;-66
2023/10/26 08:48:03;;;;;;;62.07;33.67;;;16.00;99.90;;;;;;5079011;28;20235;-66
2023/10/26 08:50:31;;;;;;;50.00;29.50;;;16.00;99.90;;;;;;5081876;28;20193;-68
2023/10/26 08:52:59;;;;;;;54.63;31.43;;;16.00;99.90;;;;;;5068826;28;20209;-68
2023/10/26 08:55:26;;;;;;;55.83;33.03;;;16.10;99.90;;;;;;5082844;28;20658;-69
2023/10/26 08:57:54;;;;;;;55.87;32.30;;;16.10;99.90;;;;;;5071779;28;20206;-67
2023/10/26 09:00:22;;;;;;;58.00;32.37;;;16.10;99.90;;;;;;5068868;28;20203;-67
2023/10/26 09:02:49;;;;;;;52.60;31.43;;;16.20;99.90;;;;;;5085220;28;20647;-67
2023/10/26 09:05:17;;;;;;;55.47;32.33;;;16.20;99.90;;;;;;5079031;28;20221;-67
2023/10/26 09:07:45;;;;;;;61.10;32.80;;;16.20;99.90;;;;;;5086589;28;20205;-67
2023/10/26 09:10:12;;;;;;;62.83;34.73;;;16.20;99.90;;;;;;5089688;28;20213;-67
2023/10/26 09:12:39;;;;;;;58.47;34.10;;;16.30;99.90;;;;;;5087935;28;20202;-67
2023/10/26 09:15:07;;;;;;;56.33;33.00;;;16.30;99.90;;;;;;5078022;28;20208;-68
2023/10/26 09:17:34;;;;;;;53.13;32.80;;;16.30;99.90;;;;;;5086309;28;20195;-68
2023/10/26 09:20:22;;;;;;;56.30;32.23;;;16.30;99.90;;;;;;5092545;28;20205;-68
2023/10/26 09:22:50;;;;;;;57.53;32.43;;;16.40;99.90;;;;;;5069237;28;20311;-68
2023/10/26 09:25:18;;;;;;;55.13;32.20;;;16.40;99.90;;;;;;5088985;28;20204;-63
2023/10/26 09:27:46;;;;;;;55.87;33.70;;;16.50;99.90;;;;;;5088612;28;20285;-63
2023/10/26 09:30:29;;;;;;;58.23;33.87;;;16.50;99.90;;;;;;5083732;28;20216;-63
2023/10/26 09:32:57;;;;;;;54.57;33.87;;;16.50;99.90;;;;;;5083527;28;20639;-63
2023/10/26 09:35:34;;;;;;;54.43;32.07;;;16.60;99.90;;;;;;5084456;28;20198;-63
2023/10/26 09:38:01;;;;;;;57.50;33.67;;;16.60;99.90;;;;;;5084277;28;20210;-63
2023/10/26 09:40:28;;;;;;;50.53;31.70;;;16.70;99.90;;;;;;5086109;28;20197;-63
2023/10/26 09:42:56;;;;;;;50.57;30.60;;;16.70;99.90;;;;;;5067736;28;20539;-63
2023/10/26 09:45:25;;;;;;;51.23;30.30;;;16.70;99.90;;;;;;5086316;28;20285;-63
2023/10/26 09:47:52;;;;;;;55.17;31.33;;;16.80;99.90;;;;;;5087836;28;20292;-63
2023/10/26 09:50:20;;;;;;;54.10;32.23;;;16.80;99.90;;;;;;5085891;28;20709;-63
2023/10/26 09:52:48;;;;;;;53.03;32.43;;;16.80;99.90;;;;;;5087865;28;20198;-63
2023/10/26 09:55:16;;;;;;;52.57;32.70;;;16.80;99.90;;;;;;5081314;28;20252;-63
2023/10/26 09:57:56;;;;;;;52.37;32.47;;;16.90;99.90;;;;;;5084705;28;20191;-63
2023/10/26 10:00:35;;;;;;;50.63;31.40;;;16.90;99.90;;;;;;5088309;28;20209;-63
2023/10/26 10:03:12;;;;;;;46.60;30.33;;;17.00;99.90;;;;;;5081902;28;20202;-63
2023/10/26 10:05:42;;;;;;;51.87;32.03;;;17.00;99.90;;;;;;5086334;28;20524;-63
2023/10/26 10:08:10;;;;;;;48.03;30.97;;;17.00;99.90;;;;;;5088149;28;20268;-67
2023/10/26 10:11:15;;;;;;;57.07;34.07;;;17.00;99.90;;;;;;5080445;28;20223;-66
2023/10/26 10:13:43;;;;;;;54.90;32.00;;;17.00;99.90;;;;;;5088760;28;20193;-67
2023/10/26 10:16:36;;;;;;;52.23;31.57;;;17.10;99.90;;;;;;5094148;28;20210;-67
2023/10/26 10:19:20;;;;;;;54.17;31.17;;;17.00;99.90;;;;;;5074025;28;20205;-68
2023/10/26 10:21:51;;;;;;;51.13;31.57;;;17.10;99.90;;;;;;5084304;28;20321;-68
2023/10/26 10:24:42;;;;;;;51.27;32.63;;;17.10;99.90;;;;;;5069211;28;20213;-70
2023/10/26 10:27:11;;;;;;;50.50;29.23;;;17.10;99.90;;;;;;5086520;28;20260;-68
2023/10/26 10:29:42;;;;;;;50.07;29.93;;;17.20;99.90;;;;;;5085862;28;20206;-65
2023/10/26 10:32:12;;;;;;;43.60;28.60;;;17.20;99.90;;;;;;5083047;28;20636;-68
2023/10/26 10:34:46;;;;;;;53.03;31.50;;;17.30;99.90;;;;;;5067023;28;20218;-65
2023/10/26 10:37:21;;;;;;;51.07;30.13;;;17.30;99.90;;;;;;5086604;28;20222;-65
2023/10/26 10:40:14;;;;;;;53.63;29.80;;;17.40;99.90;;;;;;5080105;28;20308;-67
2023/10/26 10:42:49;;;;;;;59.90;33.07;;;17.40;99.90;;;;;;5083345;28;20242;-68
2023/10/26 10:45:18;;;;;;;53.33;30.23;;;17.40;99.90;;;;;;5082675;28;20651;-66
2023/10/26 10:47:49;;;;;;;55.70;31.07;;;17.40;99.90;;;;;;5081575;28;20203;-68
2023/10/26 10:50:23;;;;;;;57.80;31.77;;;17.40;99.90;;;;;;5084609;28;20731;-68
2023/10/26 10:52:55;;;;;;;44.40;26.73;;;17.40;99.90;;;;;;5080496;28;20736;-69
2023/10/26 10:55:29;;;;;;;47.70;29.60;;;17.40;99.90;;;;;;5078975;28;20796;-68
2023/10/26 10:58:03;;;;;;;52.43;27.87;;;17.40;99.90;;;;;;5083667;28;20197;-67
2023/10/26 11:00:44;;;;;;;48.63;29.77;;;17.40;99.90;;;;;;5079801;28;20207;-70
2023/10/26 11:03:22;;;;;;;49.43;29.50;;;17.40;99.90;;;;;;5087043;28;20219;-65
2023/10/26 11:05:49;;;;;;;47.60;28.80;;;17.40;99.90;;;;;;5072997;28;20673;-69
2023/10/26 11:08:16;;;;;;;47.57;27.43;;;17.50;99.90;;;;;;5081747;28;20258;-67
2023/10/26 11:10:49;;;;;;;49.30;28.07;;;17.50;99.90;;;;;;5086204;28;20224;-69
2023/10/26 11:13:20;;;;;;;45.10;29.20;;;17.50;99.90;;;;;;5088992;28;20208;-67
2023/10/26 11:15:48;;;;;;;50.43;31.20;;;17.50;99.90;;;;;;5085516;28;20232;-68
2023/10/26 11:18:15;;;;;;;57.70;30.17;;;17.50;99.90;;;;;;5080741;28;20639;-68
2023/10/26 11:20:45;;;;;;;51.17;30.30;;;17.60;99.90;;;;;;5088145;28;20255;-68
2023/10/26 11:23:14;;;;;;;48.37;30.47;;;17.60;99.90;;;;;;5082089;28;20243;-68
2023/10/26 11:25:44;;;;;;;53.93;31.43;;;17.60;99.90;;;;;;5074566;28;20201;-68
2023/10/26 11:28:11;;;;;;;56.13;31.07;;;17.70;99.90;;;;;;5085671;28;20211;-68
2023/10/26 11:30:49;;;;;;;57.07;30.47;;;17.70;99.90;;;;;;5081830;28;20603;-68
2023/10/26 11:33:33;;;;;;;50.87;29.70;;;17.80;99.90;;;;;;5085192;28;20288;-68
2023/10/26 11:36:02;;;;;;;47.17;29.70;;;17.80;99.90;;;;;;5081511;28;20210;-68
2023/10/26 11:38:31;;;;;;;45.00;28.87;;;17.90;99.90;;;;;;5083794;28;20196;-68
2023/10/26 11:40:58;;;;;;;52.30;27.97;;;17.90;99.90;;;;;;5082956;28;20196;-68
2023/10/26 11:43:34;;;;;;;43.97;28.73;;;17.90;99.90;;;;;;5080704;28;20206;-68
2023/10/26 11:46:04;;;;;;;44.53;27.90;;;17.90;99.90;;;;;;5083436;28;20197;-69
2023/10/26 11:48:33;;;;;;;45.53;28.87;;;17.90;99.90;;;;;;5080199;28;20207;-69
2023/10/26 11:51:02;;;;;;;45.87;28.27;;;17.80;99.90;;;;;;5080456;28;20740;-69
2023/10/26 11:53:29;;;;;;;49.47;30.03;;;17.80;99.90;;;;;;5082519;28;20194;-68
2023/10/26 11:55:58;;;;;;;45.13;28.33;;;17.80;99.90;;;;;;5068123;28;20209;-68
2023/10/26 11:58:25;;;;;;;41.93;27.07;;;17.90;99.90;;;;;;5084504;28;20191;-68
2023/10/26 12:00:52;;;;;;;41.03;26.90;;;17.90;99.80;;;;;;5086223;28;20645;-68
2023/10/26 12:03:19;;;;;;;46.63;26.30;;;17.90;99.70;;;;;;5076944;28;20671;-68
2023/10/26 12:05:46;;;;;;;42.83;26.67;;;17.90;99.70;;;;;;5081852;28;20204;-68
2023/10/26 12:08:13;;;;;;;43.63;28.27;;;18.00;99.70;;;;;;5088631;28;20282;-68
2023/10/26 12:10:41;;;;;;;43.90;26.87;;;18.00;99.60;;;;;;5080487;28;20211;-68
2023/10/26 12:13:08;;;;;;;38.07;25.47;;;18.10;99.60;;;;;;5086102;28;20199;-68
2023/10/26 12:15:36;;;;;;;41.13;27.27;;;18.10;99.50;;;;;;5081766;28;20601;-68
2023/10/26 12:18:03;;;;;;;40.00;26.60;;;18.20;99.40;;;;;;5072431;28;20206;-67
2023/10/26 12:20:31;;;;;;;38.50;24.63;;;18.30;99.30;;;;;;5081420;28;20232;-69
2023/10/26 12:22:58;;;;;;;44.23;26.53;;;18.40;99.40;;;;;;5081809;28;20689;-67
2023/10/26 12:25:25;;;;;;;36.97;25.13;;;18.60;99.00;;;;;;5085585;28;20875;-67
2023/10/26 12:27:52;;;;;;;40.07;24.63;;;18.70;98.50;;;;;;5088370;28;20196;-66
2023/10/26 12:30:39;;;;;;;43.37;27.70;;;18.80;98.00;;;;;;5075990;28;20209;-67
2023/10/26 12:33:07;;;;;;;43.13;28.60;;;18.80;97.60;;;;;;5084276;28;20196;-66
2023/10/26 12:35:34;;;;;;;43.30;29.30;;;18.80;97.50;;;;;;5078568;28;20280;-66
2023/10/26 12:38:01;;;;;;;39.43;25.87;;;18.80;97.40;;;;;;5078409;28;20223;-69
2023/10/26 12:40:28;;;;;;;44.00;27.13;;;18.80;97.30;;;;;;5080917;28;20282;-67
2023/10/26 12:42:57;;;;;;;37.70;27.50;;;18.80;97.40;;;;;;5083273;28;20206;-66
2023/10/26 12:45:24;;;;;;;39.30;27.50;;;18.80;97.40;;;;;;5073467;28;20230;-67
2023/10/26 12:47:51;;;;;;;36.73;26.33;;;18.80;97.50;;;;;;5080887;28;20215;-65
2023/10/26 12:50:18;;;;;;;38.70;26.33;;;18.80;97.50;;;;;;5084925;28;20227;-67
2023/10/26 12:52:45;;;;;;;37.87;27.13;;;18.80;97.30;;;;;;5086327;28;20197;-67
2023/10/26 12:55:13;;;;;;;40.73;26.60;;;18.80;97.30;;;;;;5080512;28;20222;-66
2023/10/26 12:57:40;;;;;;;40.53;27.83;;;18.80;97.30;;;;;;5088662;28;20285;-67
2023/10/26 13:00:07;;;;;;;39.67;27.70;;;18.80;97.20;;;;;;5073489;28;20261;-67
2023/10/26 13:02:36;;;;;;;42.37;28.10;;;18.80;97.10;;;;;;5074196;28;20206;-68
2023/10/26 13:05:03;;;;;;;41.20;26.90;;;18.90;97.00;;;;;;5088057;28;20203;-68
2023/10/26 13:07:31;;;;;;;38.37;26.27;;;18.90;96.70;;;;;;5086888;28;20210;-69
2023/10/26 13:09:58;;;;;;;36.67;26.80;;;18.90;96.50;;;;;;5085517;28;20685;-65
2023/10/26 13:12:25;;;;;;;38.93;26.57;;;18.90;96.60;;;;;;5076106;28;20205;-66
2023/10/26 13:14:52;;;;;;;38.83;26.07;;;19.00;96.60;;;;;;5071379;28;20220;-68
2023/10/26 13:17:30;;;;;;;37.10;25.37;;;19.00;96.50;;;;;;5088027;28;20284;-67
2023/10/26 13:19:57;;;;;;;37.57;27.30;;;19.10;96.50;;;;;;5081793;28;20236;-67
2023/10/26 13:22:24;;;;;;;36.73;27.00;;;19.10;96.20;;;;;;5075523;28;20552;-66
2023/10/26 13:24:51;;;;;;;35.70;25.23;;;19.00;95.90;;;;;;5084919;28;20594;-67
2023/10/26 13:27:18;;;;;;;35.60;24.30;;;19.00;95.90;;;;;;5088744;28;20228;-69
2023/10/26 13:29:45;;;;;;;37.00;25.90;;;18.90;95.70;;;;;;5087071;28;20223;-69